sensor_id;sensor_type;location;lat;lon;timestamp;temperature;humidity
20162;DHT22;51382;53.180;15.414;2024-03-02T00:04:23;9.90;99.90
20162;DHT22;51382;53.180;15.414;2024-03-02T00:19:34;9.70;99.90
20162;DHT22;51382;53.180;15.414;2024-03-02T00:34:49;9.90;99.90
20162;DHT22;51382;53.180;15.414;2024-03-02T00:50:01;9.90;99.90
20162;DHT22;51382;53.180;15.414;2024-03-02T01:05:16;9.90;99.90
20162;DHT22;51382;53.180;15.414;2024-03-02T01:20:34;9.90;99.90
20162;DHT22;51382;53.180;15.414;2024-03-02T01:36:19;9.90;99.90
20162;DHT22;51382;53.180;15.414;2024-03-02T01:51:30;9.90;99.90
20162;DHT22;51382;53.180;15.414;2024-03-02T02:06:41;9.90;99.90
20162;DHT22;51382;53.180;15.414;2024-03-02T02:21:55;9.90;99.90
20162;DHT22;51382;53.180;15.414;2024-03-02T02:37:06;10.00;99.90
20162;DHT22;51382;53.180;15.414;2024-03-02T02:52:18;10.10;99.90
20162;DHT22;51382;53.180;15.414;2024-03-02T03:07:29;10.10;99.90
20162;DHT22;51382;53.180;15.414;2024-03-02T03:22:40;10.20;99.90
20162;DHT22;51382;53.180;15.414;2024-03-02T03:37:52;10.10;99.90
20162;DHT22;51382;53.180;15.414;2024-03-02T03:53:03;10.20;99.90
20162;DHT22;51382;53.180;15.414;2024-03-02T04:08:14;10.20;99.90
20162;DHT22;51382;53.180;15.414;2024-03-02T04:23:25;10.10;99.90
20162;DHT22;51382;53.180;15.414;2024-03-02T04:38:37;10.10;99.90
20162;DHT22;51382;53.180;15.414;2024-03-02T04:53:48;10.10;99.90
20162;DHT22;51382;53.180;15.414;2024-03-02T05:08:59;10.10;99.90
20162;DHT22;51382;53.180;15.414;2024-03-02T05:24:10;10.10;99.90
20162;DHT22;51382;53.180;15.414;2024-03-02T05:39:22;10.00;99.90
20162;DHT22;51382;53.180;15.414;2024-03-02T05:54:33;10.00;99.90
20162;DHT22;51382;53.180;15.414;2024-03-02T06:09:44;10.00;99.90
20162;DHT22;51382;53.180;15.414;2024-03-02T06:24:53;10.10;99.90
20162;DHT22;51382;53.180;15.414;2024-03-02T06:40:06;10.00;99.90
20162;DHT22;51382;53.180;15.414;2024-03-02T06:55:18;10.00;99.90
20162;DHT22;51382;53.180;15.414;2024-03-02T07:10:32;10.00;99.90
20162;DHT22;51382;53.180;15.414;2024-03-02T07:25:46;10.10;99.90
20162;DHT22;51382;53.180;15.414;2024-03-02T07:40:57;10.10;99.90
20162;DHT22;51382;53.180;15.414;2024-03-02T07:56:08;10.50;99.90
20162;DHT22;51382;53.180;15.414;2024-03-02T08:11:19;11.00;99.90
20162;DHT22;51382;53.180;15.414;2024-03-02T08:26:33;11.20;99.90
20162;DHT22;51382;53.180;15.414;2024-03-02T08:41:45;10.80;99.90
20162;DHT22;51382;53.180;15.414;2024-03-02T08:56:57;10.80;99.90
20162;DHT22;51382;53.180;15.414;2024-03-02T09:12:08;10.90;99.90
20162;DHT22;51382;53.180;15.414;2024-03-02T09:27:20;10.90;99.90
20162;DHT22;51382;53.180;15.414;2024-03-02T09:42:32;11.10;99.90
20162;DHT22;51382;53.180;15.414;2024-03-02T09:57:43;11.00;99.90
20162;DHT22;51382;53.180;15.414;2024-03-02T10:12:57;11.00;99.90
20162;DHT22;51382;53.180;15.414;2024-03-02T10:28:15;11.00;99.90
20162;DHT22;51382;53.180;15.414;2024-03-02T10:43:27;11.00;99.90
20162;DHT22;51382;53.180;15.414;2024-03-02T10:58:38;11.30;99.90
20162;DHT22;51382;53.180;15.414;2024-03-02T11:13:51;11.50;99.90
20162;DHT22;51382;53.180;15.414;2024-03-02T11:29:07;11.90;99.90
20162;DHT22;51382;53.180;15.414;2024-03-02T11:44:39;11.60;99.90
20162;DHT22;51382;53.180;15.414;2024-03-02T11:59:53;11.70;99.90
20162;DHT22;51382;53.180;15.414;2024-03-02T12:15:07;11.80;99.90
20162;DHT22;51382;53.180;15.414;2024-03-02T12:30:19;11.80;99.90
20162;DHT22;51382;53.180;15.414;2024-03-02T12:45:30;12.20;99.90
20162;DHT22;51382;53.180;15.414;2024-03-02T13:00:42;12.50;99.90
20162;DHT22;51382;53.180;15.414;2024-03-02T13:15:56;12.60;99.90
20162;DHT22;51382;53.180;15.414;2024-03-02T13:31:07;13.00;99.90
20162;DHT22;51382;53.180;15.414;2024-03-02T13:46:19;13.00;99.90
20162;DHT22;51382;53.180;15.414;2024-03-02T14:01:31;13.10;99.90
20162;DHT22;51382;53.180;15.414;2024-03-02T14:16:43;12.90;99.90
20162;DHT22;51382;53.180;15.414;2024-03-02T14:31:55;12.90;99.90
20162;DHT22;51382;53.180;15.414;2024-03-02T14:47:06;12.70;99.90
20162;DHT22;51382;53.180;15.414;2024-03-02T15:02:17;12.60;99.90
20162;DHT22;51382;53.180;15.414;2024-03-02T15:17:28;12.50;99.90
20162;DHT22;51382;53.180;15.414;2024-03-02T15:32:40;12.30;99.90
20162;DHT22;51382;53.180;15.414;2024-03-02T15:47:54;12.10;99.90
20162;DHT22;51382;53.180;15.414;2024-03-02T16:03:05;12.00;99.90
20162;DHT22;51382;53.180;15.414;2024-03-02T16:18:19;11.40;99.90
20162;DHT22;51382;53.180;15.414;2024-03-02T16:33:30;11.30;99.90
20162;DHT22;51382;53.180;15.414;2024-03-02T16:48:42;11.20;99.90
20162;DHT22;51382;53.180;15.414;2024-03-02T17:03:53;11.20;99.90
20162;DHT22;51382;53.180;15.414;2024-03-02T17:19:04;11.10;99.90
20162;DHT22;51382;53.180;15.414;2024-03-02T17:34:16;11.30;99.90
20162;DHT22;51382;53.180;15.414;2024-03-02T17:49:27;11.20;99.90
20162;DHT22;51382;53.180;15.414;2024-03-02T18:04:39;11.00;99.90
20162;DHT22;51382;53.180;15.414;2024-03-02T18:19:51;10.90;99.90
20162;DHT22;51382;53.180;15.414;2024-03-02T18:35:03;10.80;99.90
20162;DHT22;51382;53.180;15.414;2024-03-02T18:50:16;10.70;99.90
20162;DHT22;51382;53.180;15.414;2024-03-02T19:05:27;10.10;99.90
20162;DHT22;51382;53.180;15.414;2024-03-02T19:20:39;9.90;99.90
20162;DHT22;51382;53.180;15.414;2024-03-02T19:35:50;10.00;99.90
20162;DHT22;51382;53.180;15.414;2024-03-02T19:51:05;10.10;99.90
20162;DHT22;51382;53.180;15.414;2024-03-02T20:06:18;10.10;99.90
20162;DHT22;51382;53.180;15.414;2024-03-02T20:21:31;9.90;99.90
20162;DHT22;51382;53.180;15.414;2024-03-02T20:36:42;9.60;99.90
20162;DHT22;51382;53.180;15.414;2024-03-02T20:51:54;9.60;99.90
20162;DHT22;51382;53.180;15.414;2024-03-02T21:07:05;9.50;99.90
20162;DHT22;51382;53.180;15.414;2024-03-02T21:22:16;9.40;99.90
20162;DHT22;51382;53.180;15.414;2024-03-02T21:37:32;9.40;99.90
20162;DHT22;51382;53.180;15.414;2024-03-02T21:52:46;9.40;99.90
20162;DHT22;51382;53.180;15.414;2024-03-02T22:08:01;9.40;99.90
20162;DHT22;51382;53.180;15.414;2024-03-02T22:23:13;9.30;99.90
20162;DHT22;51382;53.180;15.414;2024-03-02T22:38:25;9.30;99.90
20162;DHT22;51382;53.180;15.414;2024-03-02T22:53:37;9.20;99.90
20162;DHT22;51382;53.180;15.414;2024-03-02T23:08:48;9.20;99.90
20162;DHT22;51382;53.180;15.414;2024-03-02T23:23:59;9.20;99.90
20162;DHT22;51382;53.180;15.414;2024-03-02T23:39:10;9.20;99.90
20162;DHT22;51382;53.180;15.414;2024-03-02T23:54:42;9.10;99.90
